sensor_id;sensor_type;location;lat;lon;timestamp;P1;durP1;ratioP1;P2;durP2;ratioP2
51174;SDS011;37240;50.104;20.010;2023-02-26T00:04:26;7.78;;;3.67;;
51174;SDS011;37240;50.104;20.010;2023-02-26T00:09:27;6.70;;;4.03;;
51174;SDS011;37240;50.104;20.010;2023-02-26T00:14:27;7.38;;;3.85;;
51174;SDS011;37240;50.104;20.010;2023-02-26T00:19:28;6.35;;;3.92;;
51174;SDS011;37240;50.104;20.010;2023-02-26T00:24:29;8.73;;;3.80;;
51174;SDS011;37240;50.104;20.010;2023-02-26T00:29:29;8.75;;;3.90;;
51174;SDS011;37240;50.104;20.010;2023-02-26T00:34:30;7.60;;;4.32;;
51174;SDS011;37240;50.104;20.010;2023-02-26T00:44:38;7.93;;;4.20;;
51174;SDS011;37240;50.104;20.010;2023-02-26T00:54:43;7.68;;;4.18;;
51174;SDS011;37240;50.104;20.010;2023-02-26T00:59:43;6.70;;;3.33;;
51174;SDS011;37240;50.104;20.010;2023-02-26T01:04:44;8.52;;;4.50;;
51174;SDS011;37240;50.104;20.010;2023-02-26T01:09:45;5.85;;;4.55;;
51174;SDS011;37240;50.104;20.010;2023-02-26T01:14:46;5.85;;;4.10;;
51174;SDS011;37240;50.104;20.010;2023-02-26T01:25:34;7.93;;;4.78;;
51174;SDS011;37240;50.104;20.010;2023-02-26T01:30:39;8.38;;;4.90;;
51174;SDS011;37240;50.104;20.010;2023-02-26T01:35:41;8.95;;;4.68;;
51174;SDS011;37240;50.104;20.010;2023-02-26T01:46:34;5.80;;;4.05;;
51174;SDS011;37240;50.104;20.010;2023-02-26T01:51:43;7.18;;;4.10;;
51174;SDS011;37240;50.104;20.010;2023-02-26T01:56:50;10.65;;;4.40;;
51174;SDS011;37240;50.104;20.010;2023-02-26T02:01:55;12.15;;;4.82;;
51174;SDS011;37240;50.104;20.010;2023-02-26T02:06:57;4.68;;;3.40;;
51174;SDS011;37240;50.104;20.010;2023-02-26T02:44:40;6.53;;;3.67;;
51174;SDS011;37240;50.104;20.010;2023-02-26T02:54:50;7.55;;;4.47;;
51174;SDS011;37240;50.104;20.010;2023-02-26T03:00:00;6.13;;;3.75;;
51174;SDS011;37240;50.104;20.010;2023-02-26T03:05:03;4.38;;;3.42;;
51174;SDS011;37240;50.104;20.010;2023-02-26T03:10:04;5.60;;;4.10;;
51174;SDS011;37240;50.104;20.010;2023-02-26T03:15:05;5.15;;;4.03;;
51174;SDS011;37240;50.104;20.010;2023-02-26T03:20:26;5.20;;;3.25;;
51174;SDS011;37240;50.104;20.010;2023-02-26T03:30:56;7.63;;;3.83;;
51174;SDS011;37240;50.104;20.010;2023-02-26T03:41:39;5.22;;;2.97;;
51174;SDS011;37240;50.104;20.010;2023-02-26T03:47:05;4.97;;;3.22;;
51174;SDS011;37240;50.104;20.010;2023-02-26T03:52:10;4.55;;;3.13;;
51174;SDS011;37240;50.104;20.010;2023-02-26T03:57:12;7.45;;;3.08;;
51174;SDS011;37240;50.104;20.010;2023-02-26T04:02:15;4.50;;;3.50;;
51174;SDS011;37240;50.104;20.010;2023-02-26T04:07:18;6.90;;;3.00;;
51174;SDS011;37240;50.104;20.010;2023-02-26T04:12:23;5.47;;;2.65;;
51174;SDS011;37240;50.104;20.010;2023-02-26T04:17:25;2.30;;;2.20;;
51174;SDS011;37240;50.104;20.010;2023-02-26T04:22:26;3.50;;;3.20;;
51174;SDS011;37240;50.104;20.010;2023-02-26T04:27:26;6.93;;;2.88;;
51174;SDS011;37240;50.104;20.010;2023-02-26T04:32:27;5.40;;;2.70;;
51174;SDS011;37240;50.104;20.010;2023-02-26T04:37:27;3.80;;;2.83;;
51174;SDS011;37240;50.104;20.010;2023-02-26T04:42:28;3.33;;;2.47;;
51174;SDS011;37240;50.104;20.010;2023-02-26T04:47:29;6.43;;;2.80;;
51174;SDS011;37240;50.104;20.010;2023-02-26T04:52:29;3.70;;;2.50;;
51174;SDS011;37240;50.104;20.010;2023-02-26T04:57:30;3.65;;;2.35;;
51174;SDS011;37240;50.104;20.010;2023-02-26T05:02:30;5.00;;;3.08;;
51174;SDS011;37240;50.104;20.010;2023-02-26T05:07:31;2.88;;;2.47;;
51174;SDS011;37240;50.104;20.010;2023-02-26T05:12:31;5.28;;;2.75;;
51174;SDS011;37240;50.104;20.010;2023-02-26T05:17:32;3.40;;;2.67;;
51174;SDS011;37240;50.104;20.010;2023-02-26T05:22:34;5.35;;;3.10;;
51174;SDS011;37240;50.104;20.010;2023-02-26T05:27:36;6.78;;;4.03;;
51174;SDS011;37240;50.104;20.010;2023-02-26T05:32:36;4.60;;;3.00;;
51174;SDS011;37240;50.104;20.010;2023-02-26T05:37:37;7.75;;;3.42;;
51174;SDS011;37240;50.104;20.010;2023-02-26T05:42:38;7.07;;;3.15;;
51174;SDS011;37240;50.104;20.010;2023-02-26T05:47:39;7.55;;;3.20;;
51174;SDS011;37240;50.104;20.010;2023-02-26T05:52:40;5.20;;;2.92;;
51174;SDS011;37240;50.104;20.010;2023-02-26T05:57:40;9.88;;;3.75;;
51174;SDS011;37240;50.104;20.010;2023-02-26T06:02:41;7.95;;;3.20;;
51174;SDS011;37240;50.104;20.010;2023-02-26T06:07:41;6.57;;;3.63;;
51174;SDS011;37240;50.104;20.010;2023-02-26T06:12:42;7.82;;;3.13;;
51174;SDS011;37240;50.104;20.010;2023-02-26T06:17:43;6.65;;;3.42;;
51174;SDS011;37240;50.104;20.010;2023-02-26T06:22:43;6.28;;;3.70;;
51174;SDS011;37240;50.104;20.010;2023-02-26T06:27:44;12.32;;;3.72;;
51174;SDS011;37240;50.104;20.010;2023-02-26T06:32:44;7.80;;;3.92;;
51174;SDS011;37240;50.104;20.010;2023-02-26T06:37:45;6.57;;;4.07;;
51174;SDS011;37240;50.104;20.010;2023-02-26T06:42:45;4.25;;;3.22;;
51174;SDS011;37240;50.104;20.010;2023-02-26T06:47:46;10.80;;;4.10;;
51174;SDS011;37240;50.104;20.010;2023-02-26T06:52:46;6.50;;;4.60;;
51174;SDS011;37240;50.104;20.010;2023-02-26T06:57:47;12.55;;;4.32;;
51174;SDS011;37240;50.104;20.010;2023-02-26T07:02:48;10.95;;;3.85;;
51174;SDS011;37240;50.104;20.010;2023-02-26T07:07:49;12.23;;;4.90;;
51174;SDS011;37240;50.104;20.010;2023-02-26T07:12:50;14.52;;;4.63;;
51174;SDS011;37240;50.104;20.010;2023-02-26T07:17:50;6.72;;;4.40;;
51174;SDS011;37240;50.104;20.010;2023-02-26T07:22:51;6.72;;;3.58;;
51174;SDS011;37240;50.104;20.010;2023-02-26T07:27:51;5.70;;;3.55;;
51174;SDS011;37240;50.104;20.010;2023-02-26T07:32:52;11.82;;;3.95;;
51174;SDS011;37240;50.104;20.010;2023-02-26T07:37:53;8.25;;;3.58;;
51174;SDS011;37240;50.104;20.010;2023-02-26T07:42:53;7.32;;;4.03;;
51174;SDS011;37240;50.104;20.010;2023-02-26T07:47:54;8.23;;;3.10;;
51174;SDS011;37240;50.104;20.010;2023-02-26T07:52:55;5.97;;;3.20;;
51174;SDS011;37240;50.104;20.010;2023-02-26T07:57:55;10.00;;;3.70;;
51174;SDS011;37240;50.104;20.010;2023-02-26T08:02:56;4.20;;;3.22;;
51174;SDS011;37240;50.104;20.010;2023-02-26T08:07:56;5.63;;;3.22;;
51174;SDS011;37240;50.104;20.010;2023-02-26T08:12:57;8.02;;;2.97;;
51174;SDS011;37240;50.104;20.010;2023-02-26T08:17:57;4.40;;;2.72;;
51174;SDS011;37240;50.104;20.010;2023-02-26T08:22:58;8.30;;;3.70;;
51174;SDS011;37240;50.104;20.010;2023-02-26T08:27:58;11.13;;;2.63;;
51174;SDS011;37240;50.104;20.010;2023-02-26T08:32:59;6.38;;;2.92;;
51174;SDS011;37240;50.104;20.010;2023-02-26T08:38:00;5.88;;;3.15;;
51174;SDS011;37240;50.104;20.010;2023-02-26T08:43:00;9.15;;;3.17;;
51174;SDS011;37240;50.104;20.010;2023-02-26T08:48:01;8.57;;;3.65;;
51174;SDS011;37240;50.104;20.010;2023-02-26T08:53:02;6.15;;;2.60;;
51174;SDS011;37240;50.104;20.010;2023-02-26T08:58:03;5.32;;;3.40;;
51174;SDS011;37240;50.104;20.010;2023-02-26T09:03:03;5.22;;;3.08;;
51174;SDS011;37240;50.104;20.010;2023-02-26T09:08:04;6.28;;;3.05;;
51174;SDS011;37240;50.104;20.010;2023-02-26T09:13:05;5.35;;;2.78;;
51174;SDS011;37240;50.104;20.010;2023-02-26T09:18:06;12.30;;;3.00;;
51174;SDS011;37240;50.104;20.010;2023-02-26T09:23:06;9.10;;;3.17;;
51174;SDS011;37240;50.104;20.010;2023-02-26T09:28:07;2.88;;;2.58;;
51174;SDS011;37240;50.104;20.010;2023-02-26T09:33:07;3.53;;;2.00;;
51174;SDS011;37240;50.104;20.010;2023-02-26T09:38:08;4.47;;;2.10;;
51174;SDS011;37240;50.104;20.010;2023-02-26T09:48:19;2.45;;;1.98;;
51174;SDS011;37240;50.104;20.010;2023-02-26T09:53:23;2.20;;;1.80;;
51174;SDS011;37240;50.104;20.010;2023-02-26T09:58:28;5.00;;;2.38;;
51174;SDS011;37240;50.104;20.010;2023-02-26T10:03:33;6.75;;;2.25;;
51174;SDS011;37240;50.104;20.010;2023-02-26T10:19:39;6.93;;;2.13;;
51174;SDS011;37240;50.104;20.010;2023-02-26T10:24:48;3.47;;;2.70;;
51174;SDS011;37240;50.104;20.010;2023-02-26T10:35:21;7.22;;;3.08;;
51174;SDS011;37240;50.104;20.010;2023-02-26T10:40:30;5.50;;;2.50;;
51174;SDS011;37240;50.104;20.010;2023-02-26T10:50:48;5.53;;;2.70;;
51174;SDS011;37240;50.104;20.010;2023-02-26T10:56:01;4.57;;;2.58;;
51174;SDS011;37240;50.104;20.010;2023-02-26T11:01:16;6.28;;;2.20;;
51174;SDS011;37240;50.104;20.010;2023-02-26T11:06:20;7.03;;;2.35;;
51174;SDS011;37240;50.104;20.010;2023-02-26T11:11:47;10.60;;;3.60;;
51174;SDS011;37240;50.104;20.010;2023-02-26T11:16:55;4.63;;;2.28;;
51174;SDS011;37240;50.104;20.010;2023-02-26T11:21:58;3.20;;;2.55;;
51174;SDS011;37240;50.104;20.010;2023-02-26T11:27:01;4.50;;;2.53;;
51174;SDS011;37240;50.104;20.010;2023-02-26T11:32:04;4.68;;;2.25;;
51174;SDS011;37240;50.104;20.010;2023-02-26T11:37:05;5.75;;;3.17;;
51174;SDS011;37240;50.104;20.010;2023-02-26T11:42:05;4.15;;;2.58;;
51174;SDS011;37240;50.104;20.010;2023-02-26T11:47:11;6.10;;;2.08;;
51174;SDS011;37240;50.104;20.010;2023-02-26T11:52:22;2.88;;;1.95;;
51174;SDS011;37240;50.104;20.010;2023-02-26T11:57:29;7.30;;;3.40;;
51174;SDS011;37240;50.104;20.010;2023-02-26T12:02:32;4.15;;;2.88;;
51174;SDS011;37240;50.104;20.010;2023-02-26T12:07:33;5.10;;;2.58;;
51174;SDS011;37240;50.104;20.010;2023-02-26T12:23:39;5.20;;;2.65;;
51174;SDS011;37240;50.104;20.010;2023-02-26T12:29:14;4.18;;;2.40;;
51174;SDS011;37240;50.104;20.010;2023-02-26T12:35:06;6.30;;;3.22;;
51174;SDS011;37240;50.104;20.010;2023-02-26T12:55:57;9.68;;;3.97;;
51174;SDS011;37240;50.104;20.010;2023-02-26T13:01:24;11.40;;;5.05;;
51174;SDS011;37240;50.104;20.010;2023-02-26T13:17:33;6.70;;;3.88;;
51174;SDS011;37240;50.104;20.010;2023-02-26T13:22:58;7.80;;;4.00;;
51174;SDS011;37240;50.104;20.010;2023-02-26T13:28:04;6.72;;;3.80;;
51174;SDS011;37240;50.104;20.010;2023-02-26T13:33:22;5.30;;;3.20;;
51174;SDS011;37240;50.104;20.010;2023-02-26T13:38:32;7.35;;;3.33;;
51174;SDS011;37240;50.104;20.010;2023-02-26T13:55:04;9.88;;;4.18;;
51174;SDS011;37240;50.104;20.010;2023-02-26T14:10:58;13.10;;;4.82;;
51174;SDS011;37240;50.104;20.010;2023-02-26T14:16:09;7.70;;;3.78;;
51174;SDS011;37240;50.104;20.010;2023-02-26T14:26:24;7.57;;;4.03;;
51174;SDS011;37240;50.104;20.010;2023-02-26T14:31:34;47.58;;;17.95;;
51174;SDS011;37240;50.104;20.010;2023-02-26T14:36:53;19.50;;;4.75;;
51174;SDS011;37240;50.104;20.010;2023-02-26T14:42:22;11.82;;;4.05;;
51174;SDS011;37240;50.104;20.010;2023-02-26T14:47:36;26.73;;;10.88;;
51174;SDS011;37240;50.104;20.010;2023-02-26T15:14:39;6.97;;;3.58;;
51174;SDS011;37240;50.104;20.010;2023-02-26T15:20:09;6.00;;;3.60;;
51174;SDS011;37240;50.104;20.010;2023-02-26T15:25:28;39.20;;;14.52;;
51174;SDS011;37240;50.104;20.010;2023-02-26T15:30:32;7.18;;;3.40;;
51174;SDS011;37240;50.104;20.010;2023-02-26T15:35:33;9.15;;;4.20;;
51174;SDS011;37240;50.104;20.010;2023-02-26T15:40:34;15.07;;;4.75;;
51174;SDS011;37240;50.104;20.010;2023-02-26T15:45:37;11.98;;;5.70;;
51174;SDS011;37240;50.104;20.010;2023-02-26T15:50:51;13.98;;;4.95;;
51174;SDS011;37240;50.104;20.010;2023-02-26T15:55:55;13.48;;;5.07;;
51174;SDS011;37240;50.104;20.010;2023-02-26T16:01:01;12.10;;;4.47;;
51174;SDS011;37240;50.104;20.010;2023-02-26T16:06:03;17.45;;;6.57;;
51174;SDS011;37240;50.104;20.010;2023-02-26T16:11:05;13.25;;;5.32;;
51174;SDS011;37240;50.104;20.010;2023-02-26T16:16:09;10.27;;;4.47;;
51174;SDS011;37240;50.104;20.010;2023-02-26T16:21:30;9.45;;;4.80;;
51174;SDS011;37240;50.104;20.010;2023-02-26T16:26:36;11.05;;;4.30;;
51174;SDS011;37240;50.104;20.010;2023-02-26T16:31:40;8.20;;;4.25;;
51174;SDS011;37240;50.104;20.010;2023-02-26T16:36:42;8.35;;;4.55;;
51174;SDS011;37240;50.104;20.010;2023-02-26T16:41:45;7.82;;;4.38;;
51174;SDS011;37240;50.104;20.010;2023-02-26T16:46:47;10.60;;;4.40;;
51174;SDS011;37240;50.104;20.010;2023-02-26T16:51:49;9.10;;;4.72;;
51174;SDS011;37240;50.104;20.010;2023-02-26T16:56:59;12.27;;;4.90;;
51174;SDS011;37240;50.104;20.010;2023-02-26T17:02:20;7.93;;;4.38;;
51174;SDS011;37240;50.104;20.010;2023-02-26T17:07:32;20.77;;;8.55;;
51174;SDS011;37240;50.104;20.010;2023-02-26T17:12:41;10.80;;;5.50;;
51174;SDS011;37240;50.104;20.010;2023-02-26T17:17:47;12.80;;;5.38;;
51174;SDS011;37240;50.104;20.010;2023-02-26T17:22:47;13.82;;;5.22;;
51174;SDS011;37240;50.104;20.010;2023-02-26T17:27:48;13.55;;;4.78;;
51174;SDS011;37240;50.104;20.010;2023-02-26T17:32:49;13.32;;;5.13;;
51174;SDS011;37240;50.104;20.010;2023-02-26T17:37:50;13.68;;;5.20;;
51174;SDS011;37240;50.104;20.010;2023-02-26T17:42:51;13.18;;;6.32;;
51174;SDS011;37240;50.104;20.010;2023-02-26T17:47:52;13.48;;;5.22;;
51174;SDS011;37240;50.104;20.010;2023-02-26T17:52:52;16.88;;;5.93;;
51174;SDS011;37240;50.104;20.010;2023-02-26T17:57:53;13.38;;;5.97;;
51174;SDS011;37240;50.104;20.010;2023-02-26T18:02:55;14.88;;;6.35;;
51174;SDS011;37240;50.104;20.010;2023-02-26T18:07:56;10.77;;;5.63;;
51174;SDS011;37240;50.104;20.010;2023-02-26T18:12:56;17.85;;;5.57;;
51174;SDS011;37240;50.104;20.010;2023-02-26T18:17:57;12.93;;;5.65;;
51174;SDS011;37240;50.104;20.010;2023-02-26T18:22:58;14.65;;;6.00;;
51174;SDS011;37240;50.104;20.010;2023-02-26T18:27:58;12.85;;;6.30;;
51174;SDS011;37240;50.104;20.010;2023-02-26T18:32:59;13.85;;;5.57;;
51174;SDS011;37240;50.104;20.010;2023-02-26T18:37:59;17.50;;;7.25;;
51174;SDS011;37240;50.104;20.010;2023-02-26T18:43:00;18.90;;;7.95;;
51174;SDS011;37240;50.104;20.010;2023-02-26T18:48:01;15.27;;;6.30;;
51174;SDS011;37240;50.104;20.010;2023-02-26T18:53:01;19.58;;;6.22;;
51174;SDS011;37240;50.104;20.010;2023-02-26T18:58:02;8.20;;;4.70;;
51174;SDS011;37240;50.104;20.010;2023-02-26T19:03:03;16.98;;;6.68;;
51174;SDS011;37240;50.104;20.010;2023-02-26T19:08:04;19.05;;;7.05;;
51174;SDS011;37240;50.104;20.010;2023-02-26T19:13:05;15.77;;;7.20;;
51174;SDS011;37240;50.104;20.010;2023-02-26T19:18:05;19.45;;;6.43;;
51174;SDS011;37240;50.104;20.010;2023-02-26T19:23:06;19.33;;;7.38;;
51174;SDS011;37240;50.104;20.010;2023-02-26T19:28:07;25.42;;;8.98;;
51174;SDS011;37240;50.104;20.010;2023-02-26T19:33:07;28.42;;;10.07;;
51174;SDS011;37240;50.104;20.010;2023-02-26T19:38:08;32.80;;;10.18;;
51174;SDS011;37240;50.104;20.010;2023-02-26T19:43:09;26.08;;;9.05;;
51174;SDS011;37240;50.104;20.010;2023-02-26T19:48:09;17.70;;;7.38;;
51174;SDS011;37240;50.104;20.010;2023-02-26T19:53:10;24.30;;;8.00;;
51174;SDS011;37240;50.104;20.010;2023-02-26T19:58:10;23.25;;;8.45;;
51174;SDS011;37240;50.104;20.010;2023-02-26T20:03:11;22.77;;;7.30;;
51174;SDS011;37240;50.104;20.010;2023-02-26T20:08:11;29.13;;;11.18;;
51174;SDS011;37240;50.104;20.010;2023-02-26T20:13:12;20.52;;;7.03;;
51174;SDS011;37240;50.104;20.010;2023-02-26T20:18:13;21.20;;;6.55;;
51174;SDS011;37240;50.104;20.010;2023-02-26T20:23:13;22.02;;;6.65;;
51174;SDS011;37240;50.104;20.010;2023-02-26T20:28:14;16.73;;;6.65;;
51174;SDS011;37240;50.104;20.010;2023-02-26T20:33:16;24.17;;;7.20;;
51174;SDS011;37240;50.104;20.010;2023-02-26T20:38:17;17.70;;;6.15;;
51174;SDS011;37240;50.104;20.010;2023-02-26T20:43:18;20.48;;;6.18;;
51174;SDS011;37240;50.104;20.010;2023-02-26T20:48:18;16.50;;;7.07;;
51174;SDS011;37240;50.104;20.010;2023-02-26T20:53:19;18.27;;;7.78;;
51174;SDS011;37240;50.104;20.010;2023-02-26T20:58:20;18.83;;;7.47;;
51174;SDS011;37240;50.104;20.010;2023-02-26T21:03:21;19.90;;;7.60;;
51174;SDS011;37240;50.104;20.010;2023-02-26T21:08:22;25.73;;;8.43;;
51174;SDS011;37240;50.104;20.010;2023-02-26T21:13:23;19.50;;;7.22;;
51174;SDS011;37240;50.104;20.010;2023-02-26T21:18:23;24.88;;;8.05;;
51174;SDS011;37240;50.104;20.010;2023-02-26T21:23:24;18.58;;;7.45;;
51174;SDS011;37240;50.104;20.010;2023-02-26T21:28:24;23.23;;;7.05;;
51174;SDS011;37240;50.104;20.010;2023-02-26T21:33:25;18.23;;;6.57;;
51174;SDS011;37240;50.104;20.010;2023-02-26T21:38:26;18.30;;;6.07;;
51174;SDS011;37240;50.104;20.010;2023-02-26T21:43:26;22.02;;;6.93;;
51174;SDS011;37240;50.104;20.010;2023-02-26T21:48:27;19.27;;;6.65;;
51174;SDS011;37240;50.104;20.010;2023-02-26T21:53:27;26.80;;;7.60;;
51174;SDS011;37240;50.104;20.010;2023-02-26T21:58:28;21.88;;;6.95;;
51174;SDS011;37240;50.104;20.010;2023-02-26T22:03:28;25.50;;;7.22;;
51174;SDS011;37240;50.104;20.010;2023-02-26T22:08:29;18.83;;;6.57;;
51174;SDS011;37240;50.104;20.010;2023-02-26T22:13:30;25.65;;;9.50;;
51174;SDS011;37240;50.104;20.010;2023-02-26T22:18:30;35.10;;;9.32;;
51174;SDS011;37240;50.104;20.010;2023-02-26T22:23:31;28.83;;;9.55;;
51174;SDS011;37240;50.104;20.010;2023-02-26T22:28:32;36.35;;;10.70;;
51174;SDS011;37240;50.104;20.010;2023-02-26T22:33:32;31.33;;;10.20;;
51174;SDS011;37240;50.104;20.010;2023-02-26T22:38:33;46.72;;;12.52;;
51174;SDS011;37240;50.104;20.010;2023-02-26T22:43:33;53.30;;;13.40;;
51174;SDS011;37240;50.104;20.010;2023-02-26T22:48:35;65.10;;;14.75;;
51174;SDS011;37240;50.104;20.010;2023-02-26T22:53:35;65.25;;;15.23;;
51174;SDS011;37240;50.104;20.010;2023-02-26T22:58:36;54.58;;;13.63;;
51174;SDS011;37240;50.104;20.010;2023-02-26T23:03:36;30.08;;;10.80;;
51174;SDS011;37240;50.104;20.010;2023-02-26T23:08:37;29.50;;;10.48;;
51174;SDS011;37240;50.104;20.010;2023-02-26T23:13:38;29.27;;;10.18;;
51174;SDS011;37240;50.104;20.010;2023-02-26T23:18:38;26.80;;;10.27;;
51174;SDS011;37240;50.104;20.010;2023-02-26T23:23:39;31.95;;;10.68;;
51174;SDS011;37240;50.104;20.010;2023-02-26T23:28:40;28.15;;;10.40;;
51174;SDS011;37240;50.104;20.010;2023-02-26T23:33:40;29.50;;;10.50;;
51174;SDS011;37240;50.104;20.010;2023-02-26T23:38:41;33.85;;;10.75;;
51174;SDS011;37240;50.104;20.010;2023-02-26T23:43:41;37.17;;;13.32;;
51174;SDS011;37240;50.104;20.010;2023-02-26T23:48:42;31.40;;;12.32;;
51174;SDS011;37240;50.104;20.010;2023-02-26T23:53:44;31.50;;;10.15;;
51174;SDS011;37240;50.104;20.010;2023-02-26T23:58:44;40.90;;;12.50;;
